createdAt,value
2019-03-29T00:02:11.859Z,1999.90
2019-03-29T00:07:16.108Z,1999.90
2019-03-29T00:12:20.337Z,1987.43
2019-03-29T00:17:24.583Z,1999.90
2019-03-29T00:22:28.878Z,1990.10
2019-03-29T00:27:33.130Z,1866.17
2019-03-29T00:32:37.380Z,1993.27
2019-03-29T00:37:52.773Z,1883.07
2019-03-29T00:42:47.622Z,1992.63
2019-03-29T00:47:52.160Z,1931.80
2019-03-29T00:52:56.411Z,1965.33
2019-03-29T00:58:02.804Z,1971.53
2019-03-29T01:03:07.050Z,1958.43
2019-03-29T01:08:11.881Z,1621.37
2019-03-29T01:13:17.274Z,1969.07
2019-03-29T01:18:21.519Z,1999.90
2019-03-29T01:23:25.813Z,1974.17
2019-03-29T01:28:30.059Z,1999.90
2019-03-29T01:33:35.426Z,1982.43
2019-03-29T01:38:39.667Z,1918.73
2019-03-29T01:43:43.919Z,1842.70
2019-03-29T01:48:48.909Z,1999.90
2019-03-29T01:53:53.312Z,1985.73
2019-03-29T01:58:57.550Z,1921.77
2019-03-29T02:04:05.507Z,1987.73
2019-03-29T02:09:08.361Z,1888.73
2019-03-29T02:14:12.934Z,1952.17
2019-03-29T02:19:17.224Z,1950.23
2019-03-29T02:24:21.598Z,1939.53
2019-03-29T02:29:25.869Z,1953.83
2019-03-29T02:34:30.140Z,1993.97
2019-03-29T02:39:34.401Z,1766.90
2019-03-29T02:44:38.667Z,1999.90
2019-03-29T02:49:42.951Z,1972.57
2019-03-29T02:54:47.251Z,1972.17
2019-03-29T02:59:52.508Z,1993.07
2019-03-29T03:04:56.897Z,1979.37
2019-03-29T03:10:01.237Z,1662.13
2019-03-29T03:15:06.300Z,1999.90
2019-03-29T03:20:15.154Z,1999.90
2019-03-29T03:25:18.363Z,1827.60
2019-03-29T03:30:22.751Z,1999.90
2019-03-29T03:35:27.072Z,1968.30
2019-03-29T03:40:31.615Z,1996.40
2019-03-29T03:45:35.911Z,1999.90
2019-03-29T03:50:41.881Z,1999.90
2019-03-29T03:55:46.431Z,1853.67
2019-03-29T04:00:53.732Z,1999.90
2019-03-29T04:05:58.381Z,1826.00
2019-03-29T04:11:03.005Z,1999.90
2019-03-29T04:16:07.331Z,1868.90
2019-03-29T04:21:11.595Z,1722.80
2019-03-29T04:26:15.857Z,1529.53
2019-03-29T04:31:20.667Z,1781.97
2019-03-29T04:36:25.033Z,1888.23
2019-03-29T04:41:29.361Z,1713.27
2019-03-29T04:46:33.719Z,1901.57
2019-03-29T04:51:37.987Z,1931.57
2019-03-29T04:56:42.264Z,1522.27
2019-03-29T05:01:46.523Z,1572.50
2019-03-29T05:06:50.832Z,1813.03
2019-03-29T05:11:55.818Z,1734.43
2019-03-29T05:17:00.764Z,1931.80
2019-03-29T05:22:05.036Z,1816.60
2019-03-29T05:27:09.378Z,1883.73
2019-03-29T05:32:13.648Z,1999.90
2019-03-29T05:37:17.917Z,1660.80
2019-03-29T05:42:22.183Z,1946.60
2019-03-29T05:47:26.465Z,1834.87
2019-03-29T05:52:30.850Z,1444.63
2019-03-29T05:57:35.406Z,1499.50
2019-03-29T06:02:40.074Z,1951.70
2019-03-29T06:07:44.419Z,1999.90
2019-03-29T06:12:48.714Z,1925.57
2019-03-29T06:17:52.976Z,1899.40
2019-03-29T06:22:57.510Z,1999.90
2019-03-29T06:28:03.047Z,1999.90
2019-03-29T06:33:07.756Z,1999.90
2019-03-29T06:38:12.949Z,1999.90
2019-03-29T06:43:18.944Z,1893.40
2019-03-29T06:48:23.243Z,1813.43
2019-03-29T06:53:27.778Z,1999.90
2019-03-29T06:58:32.046Z,1999.90
2019-03-29T07:03:36.309Z,1986.03
2019-03-29T07:08:40.568Z,1999.90
2019-03-29T07:13:56.675Z,1999.90
2019-03-29T07:18:52.234Z,1999.90
2019-03-29T07:23:56.620Z,1999.90
2019-03-29T07:29:01.989Z,1999.90
2019-03-29T07:34:06.326Z,1999.90
2019-03-29T07:39:11.175Z,1999.90
2019-03-29T07:44:15.436Z,1999.90
2019-03-29T07:49:19.793Z,1999.83
2019-03-29T07:54:24.051Z,1999.90
2019-03-29T07:59:28.862Z,1999.90
2019-03-29T08:04:33.210Z,1974.03
2019-03-29T08:09:38.540Z,1928.83
2019-03-29T08:14:47.588Z,1901.23
2019-03-29T08:20:05.718Z,1999.90
2019-03-29T08:24:59.522Z,1929.63
2019-03-29T08:30:04.843Z,1999.90
2019-03-29T08:35:09.450Z,1999.90
2019-03-29T08:40:14.387Z,1999.90
2019-03-29T08:45:20.193Z,1999.90
2019-03-29T08:50:24.853Z,1999.90
2019-03-29T08:55:29.474Z,1999.90
2019-03-29T09:00:34.638Z,1999.90
2019-03-29T09:05:39.408Z,1999.90
2019-03-29T09:10:43.934Z,1999.90
2019-03-29T09:15:48.198Z,1999.90
2019-03-29T09:20:52.474Z,1999.90
2019-03-29T09:25:56.818Z,1999.90
2019-03-29T09:31:01.111Z,1999.90
2019-03-29T09:36:05.516Z,1999.90
2019-03-29T09:41:10.234Z,1999.90
2019-03-29T09:46:14.546Z,1999.90
2019-03-29T09:51:18.885Z,1999.90
2019-03-29T09:56:37.626Z,1999.90
2019-03-29T10:01:29.308Z,1968.93
2019-03-29T10:06:33.709Z,1999.90
2019-03-29T10:11:37.982Z,1733.63
2019-03-29T10:16:42.272Z,1999.90
2019-03-29T10:21:46.641Z,1736.23
2019-03-29T10:26:50.923Z,1148.77
2019-03-29T10:32:08.912Z,1274.63
2019-03-29T10:37:10.092Z,1196.70
2019-03-29T10:42:14.446Z,1248.17
2019-03-29T10:47:18.745Z,1143.60
2019-03-29T10:52:23.082Z,1131.80
2019-03-29T10:57:27.343Z,1302.20
2019-03-29T11:02:31.627Z,1143.33
2019-03-29T11:07:35.910Z,1312.20
2019-03-29T11:12:42.395Z,1617.67
2019-03-29T11:17:53.910Z,1233.33
2019-03-29T11:22:58.267Z,1456.47
2019-03-29T11:28:02.534Z,1257.03
2019-03-29T11:33:06.911Z,1374.37
2019-03-29T11:38:11.279Z,1464.37
2019-03-29T11:43:26.025Z,1175.37
2019-03-29T11:48:21.627Z,1115.53
2019-03-29T11:53:26.143Z,1270.53
2019-03-29T11:58:30.671Z,1081.63
2019-03-29T12:03:34.974Z,1144.60
2019-03-29T12:08:39.492Z,1163.10
2019-03-29T12:13:43.771Z,1324.17
2019-03-29T12:18:48.299Z,1403.30
2019-03-29T12:23:52.590Z,1405.07
2019-03-29T12:28:56.867Z,1285.50
2019-03-29T12:34:01.142Z,1172.63
2019-03-29T12:39:07.591Z,1127.17
2019-03-29T12:44:11.867Z,1204.00
2019-03-29T12:49:16.159Z,1140.57
2019-03-29T12:54:20.690Z,1430.60
2019-03-29T12:59:25.058Z,1179.67
2019-03-29T13:04:29.595Z,1274.50
2019-03-29T13:09:34.128Z,1210.33
2019-03-29T13:14:38.429Z,1390.73
2019-03-29T13:19:42.691Z,1177.20
2019-03-29T13:24:46.967Z,1127.67
2019-03-29T13:29:51.260Z,1110.33
2019-03-29T13:34:55.628Z,1324.43
2019-03-29T13:39:59.967Z,1231.07
2019-03-29T13:45:04.763Z,1127.57
2019-03-29T13:50:10.790Z,1404.60
2019-03-29T13:55:15.246Z,1252.57
2019-03-29T14:00:19.527Z,1387.43
2019-03-29T14:05:24.042Z,1727.13
2019-03-29T14:10:28.316Z,1443.27
2019-03-29T14:15:32.591Z,1497.10
2019-03-29T14:20:38.978Z,1476.07
2019-03-29T14:25:43.416Z,1389.30
2019-03-29T14:30:47.738Z,1747.77
2019-03-29T14:36:02.106Z,1612.67
2019-03-29T14:41:12.478Z,1232.20
2019-03-29T14:46:22.803Z,1440.80
2019-03-29T14:51:29.162Z,1483.70
2019-03-29T14:56:33.815Z,1432.43
2019-03-29T15:01:38.134Z,1951.07
2019-03-29T15:06:42.614Z,1602.00
2019-03-29T15:11:47.139Z,1999.90
2019-03-29T15:16:51.418Z,1522.97
2019-03-29T15:21:55.702Z,1441.80
2019-03-29T15:27:00.097Z,1423.80
2019-03-29T15:32:04.644Z,1538.37
2019-03-29T15:37:10.180Z,1379.43
2019-03-29T15:42:16.728Z,1354.17
2019-03-29T15:47:26.313Z,1326.00
2019-03-29T15:52:30.690Z,1349.47
2019-03-29T15:57:35.251Z,1245.93
2019-03-29T16:02:39.584Z,1301.57
2019-03-29T16:07:43.982Z,1445.40
2019-03-29T16:12:48.348Z,1421.43
2019-03-29T16:17:52.658Z,1263.50
2019-03-29T16:22:57.192Z,1388.60
2019-03-29T16:28:01.519Z,1323.83
2019-03-29T16:33:07.860Z,1373.57
2019-03-29T16:38:12.437Z,1165.80
2019-03-29T16:43:17.986Z,1384.43
2019-03-29T16:48:22.268Z,1189.23
2019-03-29T16:53:26.588Z,1329.70
2019-03-29T16:58:30.941Z,1297.70
2019-03-29T17:03:35.214Z,1214.37
2019-03-29T17:08:39.774Z,1143.63
2019-03-29T17:13:45.045Z,1091.53
2019-03-29T17:18:56.262Z,1115.37
2019-03-29T17:24:01.238Z,1124.10
2019-03-29T17:29:06.623Z,1150.87
2019-03-29T17:34:12.004Z,1449.20
2019-03-29T17:39:16.363Z,1148.27
2019-03-29T17:44:20.651Z,1097.57
2019-03-29T17:49:24.958Z,1199.40
2019-03-29T17:54:29.292Z,1144.97
2019-03-29T17:59:33.647Z,1071.80
2019-03-29T18:04:39.043Z,1281.67
2019-03-29T18:09:43.603Z,1231.13
2019-03-29T18:14:53.789Z,1096.83
2019-03-29T18:20:17.146Z,1002.63
2019-03-29T18:25:23.150Z,1109.03
2019-03-29T18:30:43.137Z,1096.73
2019-03-29T18:35:48.361Z,1035.60
2019-03-29T18:40:53.238Z,973.10
2019-03-29T18:45:58.941Z,999.47
2019-03-29T18:51:07.040Z,975.53
2019-03-29T18:56:11.788Z,957.70
2019-03-29T19:01:16.242Z,1121.33
2019-03-29T19:06:20.520Z,1191.60
2019-03-29T19:11:24.839Z,1315.07
2019-03-29T19:16:30.139Z,1505.67
2019-03-29T19:21:34.464Z,1454.33
2019-03-29T19:26:38.791Z,1562.73
2019-03-29T19:31:43.127Z,1678.63
2019-03-29T19:36:51.354Z,1637.00
2019-03-29T19:41:56.965Z,1749.27
2019-03-29T19:47:13.262Z,1867.77
2019-03-29T19:52:12.179Z,1923.60
2019-03-29T19:57:22.849Z,1494.93
2019-03-29T20:02:27.139Z,1754.10
2019-03-29T20:07:31.594Z,1896.70
2019-03-29T20:12:45.395Z,1999.90
2019-03-29T20:17:53.603Z,1999.90
2019-03-29T20:23:05.123Z,1999.90
2019-03-29T20:28:21.718Z,1959.13
2019-03-29T20:33:25.997Z,1814.30
2019-03-29T20:38:35.764Z,1801.83
2019-03-29T20:43:41.959Z,1950.73
2019-03-29T20:48:48.276Z,1927.20
2019-03-29T20:54:04.883Z,1999.90
2019-03-29T20:59:01.573Z,1999.90
2019-03-29T21:04:05.895Z,1999.90
2019-03-29T21:09:18.730Z,1999.90
2019-03-29T21:14:24.172Z,1999.90
2019-03-29T21:19:28.883Z,1999.90
2019-03-29T21:24:37.634Z,1995.20
2019-03-29T21:30:20.791Z,1999.90
2019-03-29T21:35:28.697Z,1984.13
2019-03-29T21:40:32.958Z,1999.90
2019-03-29T21:45:37.358Z,1999.90
2019-03-29T21:50:41.994Z,1999.90
2019-03-29T21:55:47.453Z,1999.90
2019-03-29T22:00:51.790Z,1999.90
2019-03-29T22:05:56.142Z,1999.90
2019-03-29T22:11:01.708Z,1999.90
2019-03-29T22:16:06.207Z,1999.90
2019-03-29T22:21:11.618Z,1999.90
2019-03-29T22:26:18.183Z,1999.90
2019-03-29T22:31:22.723Z,1999.90
2019-03-29T22:36:27.803Z,1999.90
2019-03-29T22:41:32.675Z,1999.90
2019-03-29T22:46:36.960Z,1999.90
2019-03-29T22:51:43.319Z,1999.90
2019-03-29T22:56:47.671Z,1999.90
2019-03-29T23:01:51.942Z,1999.90
2019-03-29T23:06:56.358Z,1999.90
2019-03-29T23:12:00.639Z,1997.17
2019-03-29T23:17:12.445Z,1999.90
2019-03-29T23:22:16.835Z,1999.90
2019-03-29T23:27:21.106Z,1999.90
2019-03-29T23:32:26.492Z,1974.03
2019-03-29T23:37:31.028Z,1962.27
2019-03-29T23:42:36.203Z,1839.37
2019-03-29T23:47:40.735Z,1918.60
2019-03-29T23:52:45.547Z,1679.50
2019-03-29T23:57:50.078Z,1738.47
